createdAt,value
2017-10-14T00:00:01.408Z,16.6
2017-10-14T00:05:01.737Z,16.6
2017-10-14T00:10:01.947Z,16.6
2017-10-14T00:15:01.412Z,16.6
2017-10-14T00:20:01.343Z,16.7
2017-10-14T00:25:01.575Z,16.7
2017-10-14T00:30:01.719Z,16.7
2017-10-14T00:35:02.190Z,16.7
2017-10-14T00:40:01.788Z,16.7
2017-10-14T00:45:02.368Z,16.7
2017-10-14T00:50:02.054Z,16.7
2017-10-14T00:55:01.235Z,16.8
2017-10-14T01:00:02.065Z,16.8
2017-10-14T01:05:02.275Z,16.8
2017-10-14T01:10:02.007Z,16.8
2017-10-14T01:15:01.685Z,16.8
2017-10-14T01:20:01.552Z,16.8
2017-10-14T01:25:02.385Z,16.8
2017-10-14T01:30:02.169Z,16.8
2017-10-14T01:35:01.514Z,16.8
2017-10-14T01:40:01.821Z,16.8
2017-10-14T01:45:02.169Z,16.8
2017-10-14T01:50:01.894Z,16.8
2017-10-14T01:55:01.594Z,16.9
2017-10-14T02:00:01.453Z,16.9
2017-10-14T02:05:02.065Z,16.9
2017-10-14T02:10:01.898Z,17
2017-10-14T02:15:02.065Z,17
2017-10-14T02:20:01.390Z,17
2017-10-14T02:25:02.079Z,17
2017-10-14T02:30:01.298Z,17
2017-10-14T02:35:02.099Z,17
2017-10-14T02:40:01.931Z,17
2017-10-14T02:45:02.168Z,17
2017-10-14T02:50:01.560Z,17
2017-10-14T02:55:01.294Z,17
2017-10-14T03:00:01.684Z,17
2017-10-14T03:05:02.384Z,17
2017-10-14T03:10:01.323Z,17
2017-10-14T03:15:01.721Z,17
2017-10-14T03:20:01.859Z,17
2017-10-14T03:25:02.057Z,17
2017-10-14T03:30:01.984Z,17
2017-10-14T03:35:01.272Z,17
2017-10-14T03:40:02.570Z,17
2017-10-14T03:45:01.528Z,17
2017-10-14T03:50:01.385Z,17
2017-10-14T03:55:02.343Z,17
2017-10-14T04:00:01.490Z,17
2017-10-14T04:05:01.805Z,16.9
2017-10-14T04:10:01.971Z,16.9
2017-10-14T04:15:02.305Z,16.9
2017-10-14T04:20:01.985Z,16.9
2017-10-14T04:25:01.535Z,16.9
2017-10-14T04:30:01.255Z,16.9
2017-10-14T04:35:01.745Z,16.9
2017-10-14T04:40:01.574Z,16.9
2017-10-14T04:45:02.104Z,16.9
2017-10-14T04:50:01.199Z,16.9
2017-10-14T04:55:02.130Z,16.8
2017-10-14T05:00:02.075Z,16.8
2017-10-14T05:05:01.310Z,16.9
2017-10-14T05:10:02.623Z,16.9
2017-10-14T05:15:01.601Z,16.9
2017-10-14T05:20:01.393Z,16.8
2017-10-14T05:25:01.732Z,16.9
2017-10-14T05:30:01.994Z,16.9
2017-10-14T05:35:01.838Z,16.8
2017-10-14T05:40:01.695Z,16.8
2017-10-14T05:45:01.511Z,16.8
2017-10-14T05:50:02.127Z,16.8
2017-10-14T05:55:01.250Z,16.8
2017-10-14T06:00:01.812Z,16.8
2017-10-14T06:05:01.195Z,16.8
2017-10-14T06:10:01.478Z,16.9
2017-10-14T06:15:02.126Z,16.9
2017-10-14T06:20:01.753Z,16.9
2017-10-14T06:25:02.118Z,16.9
2017-10-14T06:30:01.173Z,16.9
2017-10-14T06:35:01.723Z,16.9
2017-10-14T06:40:01.447Z,16.9
2017-10-14T06:45:01.427Z,16.9
2017-10-14T06:50:01.637Z,16.9
2017-10-14T06:55:01.414Z,16.9
2017-10-14T07:00:01.500Z,16.9
2017-10-14T07:05:02.340Z,17
2017-10-14T07:10:01.591Z,16.9
2017-10-14T07:15:01.857Z,17
2017-10-14T07:20:01.650Z,17
2017-10-14T07:25:01.716Z,17
2017-10-14T07:30:02.019Z,17
2017-10-14T07:35:01.623Z,17
2017-10-14T07:40:01.780Z,17
2017-10-14T07:45:01.839Z,16.9
2017-10-14T07:50:01.827Z,16.9
2017-10-14T07:55:02.026Z,16.9
2017-10-14T08:00:02.074Z,16.9
2017-10-14T08:05:02.005Z,16.9
2017-10-14T08:10:01.943Z,16.9
2017-10-14T08:15:02.567Z,16.9
2017-10-14T08:20:01.307Z,16.9
2017-10-14T08:25:01.305Z,16.9
2017-10-14T08:30:01.497Z,16.9
2017-10-14T08:35:01.595Z,16.9
2017-10-14T08:40:01.301Z,16.9
2017-10-14T08:45:01.680Z,16.9
2017-10-14T08:50:01.973Z,16.9
2017-10-14T08:55:01.223Z,16.9
2017-10-14T09:00:01.496Z,16.9
2017-10-14T09:05:02.045Z,16.9
2017-10-14T09:10:01.284Z,16.9
2017-10-14T09:15:02.152Z,16.9
2017-10-14T09:20:01.888Z,16.9
2017-10-14T09:25:02.223Z,16.9
2017-10-14T09:30:01.635Z,16.9
2017-10-14T09:35:01.818Z,16.9
2017-10-14T09:40:01.750Z,16.9
2017-10-14T09:45:01.648Z,16.9
2017-10-14T09:50:01.504Z,16.9
2017-10-14T09:55:01.488Z,17
2017-10-14T10:00:02.471Z,17
2017-10-14T10:05:01.622Z,17
2017-10-14T10:10:01.647Z,17
2017-10-14T10:15:01.176Z,17
2017-10-14T10:20:02.350Z,17
2017-10-14T10:25:01.207Z,17.1
2017-10-14T10:30:01.593Z,17
2017-10-14T10:35:02.330Z,17
2017-10-14T10:40:02.127Z,17
2017-10-14T10:45:01.268Z,17
2017-10-14T10:50:01.236Z,17
2017-10-14T10:55:02.437Z,16.9
2017-10-14T11:00:01.847Z,16.9
2017-10-14T11:05:01.982Z,16.9
2017-10-14T11:10:02.024Z,16.9
2017-10-14T11:15:01.880Z,17.1
2017-10-14T11:20:01.570Z,17.1
2017-10-14T11:25:01.724Z,17.1
2017-10-14T11:30:01.823Z,17.1
2017-10-14T11:35:01.602Z,17.2
2017-10-14T11:40:01.487Z,17.2
2017-10-14T11:45:02.304Z,17.2
2017-10-14T11:50:01.171Z,17.2
2017-10-14T11:55:01.585Z,17.2
2017-10-14T12:00:02.059Z,17.2
2017-10-14T12:05:02.188Z,17.1
2017-10-14T12:10:01.189Z,17.1
2017-10-14T12:15:01.277Z,17.1
2017-10-14T12:20:01.496Z,17
2017-10-14T12:25:02.104Z,17
2017-10-14T12:30:01.488Z,17
2017-10-14T12:35:01.388Z,17
2017-10-14T12:40:01.280Z,17
2017-10-14T12:45:02.304Z,16.9
2017-10-14T12:50:01.291Z,16.9
2017-10-14T12:55:01.644Z,16.9
2017-10-14T13:00:02.696Z,16.9
2017-10-14T13:05:01.879Z,16.9
2017-10-14T13:10:01.864Z,16.9
2017-10-14T13:15:01.324Z,16.9
2017-10-14T13:20:01.878Z,16.8
2017-10-14T13:25:01.416Z,16.8
2017-10-14T13:30:01.815Z,16.8
2017-10-14T13:35:02.095Z,16.8
2017-10-14T13:40:01.286Z,16.8
2017-10-14T13:45:01.815Z,16.6
2017-10-14T13:50:02.011Z,16.6
2017-10-14T13:55:01.515Z,16.6
2017-10-14T14:00:01.240Z,16.6
2017-10-14T14:05:02.116Z,16.6
2017-10-14T14:10:02.191Z,16.6
2017-10-14T14:15:01.621Z,16.6
2017-10-14T14:20:01.430Z,16.6
2017-10-14T14:25:02.211Z,16.6
2017-10-14T14:30:01.840Z,16.6
2017-10-14T14:35:01.202Z,16.6
2017-10-14T14:40:01.655Z,16.6
2017-10-14T14:45:01.924Z,16.6
2017-10-14T14:50:01.559Z,16.5
2017-10-14T14:55:01.238Z,16.5
2017-10-14T15:00:02.260Z,16.5
2017-10-14T15:05:01.644Z,16.4
2017-10-14T15:10:02.299Z,16.4
2017-10-14T15:15:01.799Z,16.4
2017-10-14T15:20:02.071Z,16.4
2017-10-14T15:25:01.952Z,16.4
2017-10-14T15:30:01.318Z,16.4
2017-10-14T15:35:02.377Z,16.4
2017-10-14T15:40:01.896Z,16.4
2017-10-14T15:45:01.207Z,16.4
2017-10-14T15:50:02.163Z,16.4
2017-10-14T15:55:02.227Z,16.4
2017-10-14T16:00:02.000Z,16.4
2017-10-14T16:05:01.698Z,16.4
2017-10-14T16:10:01.302Z,16.4
2017-10-14T16:15:01.918Z,16.4
2017-10-14T16:20:01.346Z,16.4
2017-10-14T16:25:01.562Z,16.4
2017-10-14T16:30:01.895Z,16.4
2017-10-14T16:35:01.764Z,16.4
2017-10-14T16:40:01.596Z,16.4
2017-10-14T16:45:02.166Z,16.4
2017-10-14T16:50:02.002Z,16.4
2017-10-14T16:55:01.480Z,16.4
2017-10-14T17:00:03.046Z,16.4
2017-10-14T17:05:02.136Z,16.4
2017-10-14T17:10:01.532Z,16.4
2017-10-14T17:15:01.538Z,16.4
2017-10-14T17:20:02.927Z,16.4
2017-10-14T17:25:01.910Z,16.4
2017-10-14T17:30:02.016Z,16.4
2017-10-14T17:35:01.893Z,16.3
2017-10-14T17:40:02.207Z,16.4
2017-10-14T17:45:02.056Z,16.4
2017-10-14T17:50:01.738Z,16.3
2017-10-14T17:55:02.003Z,16.3
2017-10-14T18:00:02.182Z,16.3
2017-10-14T18:05:01.792Z,16.3
2017-10-14T18:10:01.846Z,16.4
2017-10-14T18:15:02.502Z,16.4
2017-10-14T18:20:02.306Z,16.4
2017-10-14T18:25:01.564Z,16.4
2017-10-14T18:30:02.875Z,16.4
2017-10-14T18:35:01.921Z,16.4
2017-10-14T18:40:01.280Z,16.4
2017-10-14T18:45:01.541Z,16.4
2017-10-14T18:50:02.823Z,16.4
2017-10-14T18:55:01.764Z,16.4
2017-10-14T19:00:01.450Z,16.4
2017-10-14T19:05:02.059Z,16.4
2017-10-14T19:10:02.373Z,16.4
2017-10-14T19:15:02.638Z,16.4
2017-10-14T19:20:01.474Z,16.4
2017-10-14T19:25:02.115Z,16.5
2017-10-14T19:30:01.563Z,16.5
2017-10-14T19:35:01.646Z,16.5
2017-10-14T19:40:02.112Z,16.5
2017-10-14T19:45:01.774Z,16.5
2017-10-14T19:50:01.845Z,16.5
2017-10-14T19:55:01.985Z,16.6
2017-10-14T20:00:02.129Z,16.6
2017-10-14T20:05:01.334Z,16.5
2017-10-14T20:10:02.610Z,16.5
2017-10-14T20:15:01.845Z,16.5
2017-10-14T20:20:01.888Z,16.6
2017-10-14T20:25:01.880Z,16.6
2017-10-14T20:30:01.885Z,16.6
2017-10-14T20:35:01.728Z,16.6
2017-10-14T20:40:02.699Z,16.6
2017-10-14T20:45:01.568Z,16.6
2017-10-14T20:50:02.367Z,16.7
2017-10-14T20:55:02.115Z,16.7
2017-10-14T21:00:01.795Z,16.7
2017-10-14T21:05:01.570Z,16.7
2017-10-14T21:10:02.596Z,16.7
2017-10-14T21:15:01.912Z,16.7
2017-10-14T21:20:01.357Z,16.8
2017-10-14T21:25:01.730Z,16.8
2017-10-14T21:30:01.714Z,16.8
2017-10-14T21:35:01.919Z,16.8
2017-10-14T21:40:02.072Z,16.8
2017-10-14T21:45:01.217Z,16.8
2017-10-14T21:50:02.249Z,16.8
2017-10-14T21:55:01.691Z,16.8
2017-10-14T22:00:01.746Z,16.8
2017-10-14T22:05:01.438Z,16.8
2017-10-14T22:10:01.914Z,16.8
2017-10-14T22:15:02.012Z,16.8
2017-10-14T22:20:01.963Z,16.8
2017-10-14T22:25:01.898Z,16.8
2017-10-14T22:30:01.678Z,16.8
2017-10-14T22:35:01.167Z,16.8
2017-10-14T22:40:01.795Z,16.7
2017-10-14T22:45:01.216Z,16.7
2017-10-14T22:50:01.250Z,16.7
2017-10-14T22:55:01.944Z,16.7
2017-10-14T23:00:02.077Z,16.7
2017-10-14T23:05:01.176Z,16.6
2017-10-14T23:10:01.937Z,16.6
2017-10-14T23:15:01.715Z,16.6
2017-10-14T23:20:01.711Z,16.6
2017-10-14T23:25:01.561Z,16.6
2017-10-14T23:30:01.350Z,16.6
2017-10-14T23:35:01.503Z,16.6
2017-10-14T23:40:01.980Z,16.6
2017-10-14T23:45:01.609Z,16.6
2017-10-14T23:50:01.475Z,16.5
2017-10-14T23:55:02.005Z,16.5
